Aviation Digital Data Service (ADDS)

Output produced by METARs form (2356 UTC 25 June 2019)
found at http://aviationweather.gov/metar/data/
 
KMLU 252353Z VRB05KT 10SM CLR 24/22 A3004 RMK AO2 SLP171 60011 T02390217 10294 20228 56016
KMLU 252320Z 2600/2624 20010KT P6SM BKN250 
     FM260100 VRB03KT P6SM BKN250 
     FM261600 19006KT P6SM BKN250